Newport, RI (02840)

7:12 AM EDT on April 27, 2017 (GMT -0400)
Cardines Field | | Change Station
Active Advisory: Dense Fog Advisory

Elev 50 ft 41.49 °N, 71.32 °W | Updated 37 seconds ago

Overcast
Overcast
54.3 °F
Feels Like 54.3 °F
N
2.0
Wind Variable Wind from ENE
Gusts 5.0 mph

Today
High -- | Low -- °F
--% Chance of Precip.
Yesterday
High -- | Low -- °F
Precip. -- in
Pressure 29.88 in
Visibility 0.2 miles
Clouds
Dew Point 54 °F
Humidity 99%
Rainfall 0.00 in
Snow Depth Not available.
5:47 AM 7:38 PM
New Moon, 1% visible
METAR KUUU 271053Z AUTO 01004KT 1/4SM FG VV002 12/12 A2988 RMK AO2 SLP118 T01220122
Pressure 29.88 in
Visibility 0.2 miles
Clouds
Dew Point 54 °F
Humidity 99%
Rainfall 0.00 in
Snow Depth Not available.
5:47 AM 7:38 PM
New Moon, 1% visible
METAR KUUU 271053Z AUTO 01004KT 1/4SM FG VV002 12/12 A2988 RMK AO2 SLP118 T01220122

Get Your Daily Forecast Email!

Thanks for signing up!

Be on the lookout for a verification email in your inbox.

You'll start receiving severe weather alerts in your inbox..

×

10-Day Weather Forecast

Almanac

Astronomy

Apr. 27, 2017 Rise Set
Actual Time
Civil Twilight
Nautical Twilight
Astronomical Twilight
Moon
Length of Visible Light
Length of Day
Tomorrow will be .
, % of the Moon is Illuminated

Today's Extremes

State Highs State Lows

Community

WunderPhotos

WunderBlog® & News

Nearby

Air Quality

  Air Quality AQ Index Pollutant
Not available.

Snow Depth

Station Depth Elevation

Earthquake Activity

City Distance Mag. Time & Date
Minimum magnitude displayed is 2.5.

Coastal Water Temperatures

Place Temperature

Stations

Nearby Weather Stations

Station Location Temp. Windchill Dew Point Humidity Wind Precip. Elev Updated Type
                   

Watches & Warnings

Dense Fog Advisory
Issued: 7:05 AM EDT Apr. 27, 2017 – National Weather Service

... Dense fog advisory is cancelled...

The National Weather Service in Taunton has cancelled the dense
fog advisory.

While patchy dense fog may linger until 9 am, the majority of
southern New England will experience visibility greater than one
half mile. Travelers this morning should still be wary of rapidly
dropping visibility through 9 am.


For the latest updates... please visit our webpage at
www.Weather.Gov/Boston

You can follow US on facebook at